Time;durP1;ratioP1;P1;durP2;ratioP2;P2;SDS_P1;SDS_P2;PMS_P1;PMS_P2;Temp;Humidity;BMP_temperature;BMP_pressure;BME280_temperature;BME280_humidity;BME280_pressure;Samples;Min_cycle;Max_cycle;Signal;HPM_P1;HPM_P2
2020/12/11 00:00:15;;;;;;;20.25;13.73;;;3.60;94.50;;;;;;5051503;28;20235;-82
2020/12/11 00:02:42;;;;;;;21.15;15.55;;;3.70;94.90;;;;;;5051026;28;20235;-83
2020/12/11 00:05:09;;;;;;;20.00;14.00;;;3.50;94.70;;;;;;5040603;28;20219;-82
2020/12/11 00:07:36;;;;;;;20.27;14.65;;;3.50;95.10;;;;;;5050107;28;20224;-82
2020/12/11 00:10:04;;;;;;;19.75;15.32;;;3.60;95.20;;;;;;5039188;28;20204;-82
2020/12/11 00:12:31;;;;;;;17.77;14.02;;;3.80;95.20;;;;;;5030964;28;20240;-82
2020/12/11 00:14:57;;;;;;;20.80;15.18;;;3.60;94.60;;;;;;5045660;28;20207;-82
2020/12/11 00:17:26;;;;;;;21.55;14.68;;;3.70;94.60;;;;;;5040021;28;20196;-82
2020/12/11 00:19:52;;;;;;;16.85;13.80;;;3.70;94.60;;;;;;5048460;28;20208;-82
2020/12/11 00:22:20;;;;;;;17.67;12.48;;;3.50;94.40;;;;;;5050484;28;20263;-83
2020/12/11 00:24:46;;;;;;;18.80;14.32;;;3.60;94.90;;;;;;5046476;28;20208;-82
2020/12/11 00:27:13;;;;;;;20.40;15.50;;;3.50;95.00;;;;;;5050294;28;20606;-82
2020/12/11 00:29:39;;;;;;;21.88;16.90;;;3.50;95.60;;;;;;5049683;28;20274;-83
2020/12/11 00:32:06;;;;;;;24.38;16.73;;;3.60;95.50;;;;;;5048009;28;20280;-82
2020/12/11 00:34:33;;;;;;;19.40;14.40;;;3.70;95.30;;;;;;5039154;28;20193;-83
2020/12/11 00:36:59;;;;;;;18.45;14.10;;;3.60;95.00;;;;;;5037353;28;20223;-82
2020/12/11 00:39:27;;;;;;;18.85;13.82;;;3.30;95.10;;;;;;5037421;28;20200;-82
2020/12/11 00:41:54;;;;;;;15.68;13.32;;;3.30;95.80;;;;;;5030281;28;20251;-82
2020/12/11 00:44:20;;;;;;;17.48;14.30;;;3.40;95.30;;;;;;5037613;28;20331;-83
2020/12/11 00:46:47;;;;;;;16.45;14.00;;;3.30;94.70;;;;;;5049928;28;20307;-82
2020/12/11 00:49:13;;;;;;;18.70;13.52;;;3.40;95.00;;;;;;5034322;28;20255;-82
2020/12/11 00:51:40;;;;;;;16.65;13.32;;;3.30;94.80;;;;;;5050054;28;20240;-82
2020/12/11 00:54:06;;;;;;;18.27;13.23;;;3.50;94.70;;;;;;5048177;28;20243;-82
2020/12/11 00:56:33;;;;;;;15.65;12.70;;;3.40;94.60;;;;;;5038775;28;20252;-82
2020/12/11 00:59:00;;;;;;;17.15;13.20;;;3.50;94.60;;;;;;5035320;28;20579;-82
2020/12/11 01:01:26;;;;;;;17.25;12.25;;;3.50;94.50;;;;;;5049434;28;20289;-83
2020/12/11 01:03:53;;;;;;;16.58;12.57;;;3.50;94.30;;;;;;5037441;28;20259;-82
2020/12/11 01:06:19;;;;;;;13.63;12.07;;;3.40;94.40;;;;;;5047130;28;20235;-82
2020/12/11 01:08:46;;;;;;;16.35;12.93;;;3.30;94.40;;;;;;5041622;28;21379;-82
2020/12/11 01:11:12;;;;;;;18.20;13.18;;;3.30;94.70;;;;;;5029695;28;20201;-82
2020/12/11 01:13:39;;;;;;;16.42;12.73;;;3.20;94.50;;;;;;5013105;28;610717;-82
2020/12/11 01:16:06;;;;;;;16.85;13.85;;;3.20;94.50;;;;;;5049738;28;20362;-82
2020/12/11 01:18:32;;;;;;;16.40;12.77;;;3.10;94.60;;;;;;5045809;28;20279;-82
2020/12/11 01:20:59;;;;;;;14.52;12.82;;;3.30;94.80;;;;;;5032263;28;20193;-82
2020/12/11 01:23:25;;;;;;;15.75;13.55;;;3.40;94.50;;;;;;5036947;28;20195;-82
2020/12/11 01:25:51;;;;;;;16.27;12.30;;;3.30;94.70;;;;;;5032916;28;20711;-82
2020/12/11 01:28:18;;;;;;;16.90;13.32;;;3.30;94.30;;;;;;5049858;28;20192;-82
2020/12/11 01:30:45;;;;;;;17.23;13.77;;;3.40;94.50;;;;;;5032921;28;20201;-82
2020/12/11 01:33:11;;;;;;;13.52;11.98;;;3.40;94.00;;;;;;5031256;28;20233;-82
2020/12/11 01:35:38;;;;;;;18.67;12.88;;;3.40;94.20;;;;;;5048784;28;20281;-82
2020/12/11 01:38:04;;;;;;;16.20;13.38;;;3.40;93.90;;;;;;5047789;28;20208;-82
2020/12/11 01:40:34;;;;;;;16.80;13.65;;;3.30;93.90;;;;;;5029888;28;20565;-81
2020/12/11 01:43:01;;;;;;;14.30;11.68;;;3.40;93.80;;;;;;5030003;28;20204;-81
2020/12/11 01:45:27;;;;;;;17.60;13.63;;;3.20;93.80;;;;;;5048885;28;20224;-82
2020/12/11 01:47:55;;;;;;;16.70;13.35;;;3.20;93.90;;;;;;5040117;28;20292;-81
2020/12/11 01:50:21;;;;;;;14.50;12.68;;;3.20;93.80;;;;;;5049353;28;20199;-81
2020/12/11 01:52:48;;;;;;;15.60;12.05;;;2.90;93.80;;;;;;5041137;28;20197;-82
2020/12/11 01:55:15;;;;;;;18.67;14.23;;;3.00;94.40;;;;;;5045057;28;20262;-82
2020/12/11 01:57:50;;;;;;;14.52;11.70;;;3.00;94.40;;;;;;5048126;28;20254;-81
2020/12/11 02:00:20;;;;;;;14.98;11.65;;;3.00;94.40;;;;;;5042215;28;20198;-82
2020/12/11 02:02:48;;;;;;;14.73;13.00;;;2.90;94.20;;;;;;5029364;28;20228;-81
2020/12/11 02:05:16;;;;;;;15.57;12.85;;;2.80;94.10;;;;;;5045570;28;20196;-82
2020/12/11 02:07:43;;;;;;;16.63;12.85;;;2.70;94.30;;;;;;5048986;28;20192;-82
2020/12/11 02:10:11;;;;;;;17.38;11.95;;;2.90;94.70;;;;;;5072030;28;20201;-81
2020/12/11 02:12:40;;;;;;;15.95;12.13;;;3.00;94.70;;;;;;5034549;28;20205;-82
2020/12/11 02:15:08;;;;;;;15.02;11.23;;;3.00;94.70;;;;;;5043145;28;20196;-82
2020/12/11 02:17:36;;;;;;;15.20;11.23;;;2.80;94.50;;;;;;5049557;28;20265;-82
2020/12/11 02:20:04;;;;;;;16.77;11.63;;;2.70;94.40;;;;;;5050941;28;20283;-81
2020/12/11 02:22:34;;;;;;;15.05;12.57;;;2.60;94.40;;;;;;5050801;28;20533;-81
2020/12/11 02:25:02;;;;;;;16.70;12.40;;;2.60;94.60;;;;;;5046715;28;20559;-81
2020/12/11 02:27:30;;;;;;;14.82;12.65;;;2.70;94.70;;;;;;5036291;28;20267;-81
2020/12/11 02:29:58;;;;;;;19.60;14.00;;;2.80;94.50;;;;;;5033983;28;20215;-82
2020/12/11 02:32:25;;;;;;;15.80;12.65;;;2.70;94.40;;;;;;5033291;28;20211;-82
2020/12/11 02:34:53;;;;;;;17.98;13.40;;;2.70;94.40;;;;;;5043872;28;20204;-80
2020/12/11 02:37:21;;;;;;;16.15;12.30;;;2.70;94.40;;;;;;5048654;28;20228;-82
2020/12/11 02:39:52;;;;;;;19.13;13.27;;;2.70;94.40;;;;;;5043670;28;20600;-81
2020/12/11 02:42:19;;;;;;;18.42;12.95;;;2.80;94.40;;;;;;5049875;28;20265;-82
2020/12/11 02:44:45;;;;;;;15.57;12.30;;;2.70;94.00;;;;;;5051402;28;20188;-82
2020/12/11 02:47:14;;;;;;;19.25;12.85;;;2.70;94.40;;;;;;5036503;28;20193;-82
2020/12/11 02:49:41;;;;;;;18.50;13.70;;;2.70;94.40;;;;;;5039767;28;20204;-82
2020/12/11 02:52:07;;;;;;;16.20;13.77;;;2.80;94.40;;;;;;5052949;28;20208;-82
2020/12/11 02:54:33;;;;;;;18.35;13.63;;;2.70;94.30;;;;;;5049103;28;20595;-82
2020/12/11 02:57:01;;;;;;;15.60;12.00;;;2.80;94.30;;;;;;5051264;28;20211;-82
2020/12/11 02:59:27;;;;;;;20.00;14.40;;;2.70;94.60;;;;;;5047716;28;20204;-82
2020/12/11 03:01:53;;;;;;;19.15;13.93;;;2.70;94.50;;;;;;5033590;28;20227;-82
2020/12/11 03:04:20;;;;;;;17.40;12.85;;;2.60;94.20;;;;;;5044507;28;20597;-82
2020/12/11 03:06:46;;;;;;;14.60;10.73;;;2.60;94.30;;;;;;5052786;28;20204;-82
2020/12/11 03:09:13;;;;;;;17.70;12.65;;;2.60;94.40;;;;;;5049942;28;20688;-82
2020/12/11 03:11:39;;;;;;;18.05;12.75;;;2.60;94.80;;;;;;5044232;28;20262;-82
2020/12/11 03:14:06;;;;;;;18.80;12.98;;;2.50;94.80;;;;;;5044810;28;20228;-82
2020/12/11 03:16:33;;;;;;;17.70;12.77;;;2.50;94.90;;;;;;5052459;28;20216;-82
2020/12/11 03:18:59;;;;;;;18.58;14.05;;;2.50;95.40;;;;;;5038871;28;20200;-82
2020/12/11 03:21:25;;;;;;;20.88;14.98;;;2.40;95.50;;;;;;5033597;28;20201;-82
2020/12/11 03:23:52;;;;;;;19.42;13.80;;;2.50;95.60;;;;;;5041660;28;20608;-82
2020/12/11 03:26:18;;;;;;;20.80;12.90;;;2.40;95.60;;;;;;5053062;28;20195;-82
2020/12/11 03:28:44;;;;;;;18.27;13.02;;;2.20;95.40;;;;;;5048558;28;20204;-82
2020/12/11 03:31:12;;;;;;;18.00;12.80;;;2.20;95.70;;;;;;5051828;28;20200;-82
2020/12/11 03:33:38;;;;;;;21.10;13.20;;;2.30;96.10;;;;;;5046732;28;20597;-82
2020/12/11 03:36:04;;;;;;;19.33;14.40;;;2.40;96.10;;;;;;5033567;28;20638;-82
2020/12/11 03:38:31;;;;;;;20.50;13.57;;;2.40;96.10;;;;;;5032651;28;20231;-82
2020/12/11 03:40:57;;;;;;;18.55;14.65;;;2.20;95.80;;;;;;5033323;28;20200;-82
2020/12/11 03:43:23;;;;;;;19.70;14.65;;;2.10;96.10;;;;;;5037778;28;20723;-82
2020/12/11 03:45:50;;;;;;;24.63;16.17;;;2.20;96.30;;;;;;5050817;28;20627;-82
2020/12/11 03:48:17;;;;;;;20.15;14.40;;;2.40;99.90;;;;;;5051017;28;20204;-82
2020/12/11 03:50:43;;;;;;;21.20;14.70;;;2.20;96.20;;;;;;5050507;28;20204;-82
2020/12/11 03:53:10;;;;;;;19.73;13.73;;;2.20;96.20;;;;;;5037145;28;20219;-82
2020/12/11 03:55:36;;;;;;;18.90;13.88;;;2.10;96.10;;;;;;5042095;28;20255;-82
2020/12/11 03:58:02;;;;;;;20.55;13.93;;;2.10;96.50;;;;;;5036088;28;20224;-82
2020/12/11 04:00:29;;;;;;;24.63;16.10;;;2.20;96.10;;;;;;5032761;28;20678;-82
2020/12/11 04:02:55;;;;;;;17.73;14.60;;;2.20;95.80;;;;;;5034476;28;20618;-82
2020/12/11 04:05:22;;;;;;;19.65;14.00;;;1.90;95.70;;;;;;5049558;28;20204;-82
2020/12/11 04:07:49;;;;;;;23.83;15.32;;;2.00;96.20;;;;;;5036430;28;20202;-82
2020/12/11 04:10:15;;;;;;;22.23;16.02;;;2.10;96.10;;;;;;5052374;28;20450;-82
2020/12/11 04:12:42;;;;;;;21.75;16.23;;;2.10;96.20;;;;;;5037566;28;20205;-82
2020/12/11 04:15:09;;;;;;;21.27;15.40;;;2.10;96.40;;;;;;5031780;28;20275;-82
2020/12/11 04:17:35;;;;;;;23.38;14.38;;;2.10;96.10;;;;;;5031881;28;20713;-82
2020/12/11 04:20:01;;;;;;;21.50;14.70;;;2.10;96.00;;;;;;5050354;28;20227;-82
2020/12/11 04:22:29;;;;;;;22.75;15.43;;;2.40;96.20;;;;;;5049440;28;20598;-82
2020/12/11 04:24:55;;;;;;;23.67;14.70;;;2.10;95.80;;;;;;5035166;28;20192;-82
2020/12/11 04:27:22;;;;;;;26.13;16.08;;;2.10;95.90;;;;;;5049848;28;20200;-82
2020/12/11 04:29:48;;;;;;;24.08;15.60;;;2.10;95.90;;;;;;5031954;28;20197;-82
2020/12/11 04:32:15;;;;;;;21.00;14.77;;;2.20;96.00;;;;;;5032058;28;20671;-82
2020/12/11 04:34:41;;;;;;;24.55;17.23;;;2.20;96.00;;;;;;5031467;28;20208;-82
2020/12/11 04:37:07;;;;;;;23.63;13.48;;;2.00;96.20;;;;;;5032031;28;20232;-82
2020/12/11 04:39:35;;;;;;;20.92;14.23;;;2.10;96.50;;;;;;5050219;28;20197;-82
2020/12/11 04:42:02;;;;;;;22.40;16.00;;;2.00;96.10;;;;;;5050206;28;20196;-82
2020/12/11 04:44:29;;;;;;;20.73;14.85;;;2.00;96.00;;;;;;5036259;28;20560;-82
2020/12/11 04:46:56;;;;;;;23.50;16.02;;;2.00;96.10;;;;;;5034488;28;20197;-82
2020/12/11 04:49:24;;;;;;;22.65;15.32;;;1.80;95.70;;;;;;5031404;28;20739;-82
2020/12/11 04:51:51;;;;;;;23.50;15.40;;;1.70;96.30;;;;;;5034594;28;20257;-82
2020/12/11 04:54:20;;;;;;;29.58;15.68;;;1.70;96.40;;;;;;5038857;28;20228;-81
2020/12/11 04:56:51;;;;;;;20.95;14.32;;;1.70;96.50;;;;;;5030371;28;20682;-81
2020/12/11 04:59:18;;;;;;;20.88;15.27;;;1.80;97.00;;;;;;5044390;28;20262;-82
2020/12/11 05:01:45;;;;;;;26.80;17.20;;;1.70;96.70;;;;;;5035021;28;20362;-82
2020/12/11 05:04:11;;;;;;;22.70;16.38;;;1.70;96.40;;;;;;5042820;28;20231;-82
2020/12/11 05:06:38;;;;;;;24.83;15.88;;;1.80;96.60;;;;;;5034780;28;20250;-82
2020/12/11 05:09:15;;;;;;;20.80;15.65;;;1.80;96.40;;;;;;5040913;28;20231;-82
2020/12/11 05:11:43;;;;;;;25.05;14.80;;;1.80;96.30;;;;;;5050652;28;20231;-82
2020/12/11 05:14:23;;;;;;;25.65;15.32;;;1.70;96.20;;;;;;5045142;28;20536;-81
2020/12/11 05:17:01;;;;;;;22.83;15.90;;;1.70;96.30;;;;;;5049403;28;20224;-82
2020/12/11 05:19:28;;;;;;;21.58;14.32;;;1.70;96.30;;;;;;5046324;28;20227;-82
2020/12/11 05:22:07;;;;;;;26.08;14.77;;;1.60;96.20;;;;;;5050351;28;20569;-81
2020/12/11 05:24:42;;;;;;;24.08;15.25;;;1.50;96.10;;;;;;5039342;28;20686;-81
2020/12/11 05:27:27;;;;;;;23.98;14.55;;;1.50;96.30;;;;;;5044568;28;20680;-81
2020/12/11 05:29:54;;;;;;;22.35;15.88;;;1.50;96.20;;;;;;5035923;28;20200;-81
2020/12/11 05:32:38;;;;;;;23.20;16.08;;;1.50;96.50;;;;;;5050692;28;20232;-81
2020/12/11 05:35:06;;;;;;;24.65;16.20;;;1.50;96.40;;;;;;5050040;28;20775;-81
2020/12/11 05:37:45;;;;;;;22.50;15.50;;;1.40;96.50;;;;;;5033460;28;20228;-81
2020/12/11 05:40:16;;;;;;;24.83;16.00;;;1.40;96.50;;;;;;5049094;28;20204;-81
2020/12/11 05:42:43;;;;;;;21.98;15.88;;;1.50;96.50;;;;;;5039331;28;20204;-80
2020/12/11 05:45:17;;;;;;;23.38;15.73;;;1.40;96.30;;;;;;5048782;28;20200;-81
2020/12/11 05:47:43;;;;;;;29.00;15.85;;;1.30;96.50;;;;;;5044685;28;20199;-81
2020/12/11 05:50:19;;;;;;;25.80;16.00;;;1.40;96.50;;;;;;5040414;28;20200;-81
2020/12/11 05:52:48;;;;;;;19.80;14.68;;;1.40;96.70;;;;;;5030227;28;20205;-80
2020/12/11 05:55:18;;;;;;;26.27;15.60;;;1.50;96.30;;;;;;5030184;28;20207;-81
2020/12/11 05:57:46;;;;;;;21.60;15.02;;;1.40;96.40;;;;;;5037524;28;20231;-81
2020/12/11 06:00:13;;;;;;;23.88;15.65;;;1.50;96.20;;;;;;5043969;28;20224;-81
2020/12/11 06:02:40;;;;;;;25.02;15.35;;;;;;;;;;5030581;28;20331;-80
2020/12/11 06:05:07;;;;;;;22.67;15.73;;;1.30;95.90;;;;;;5049516;28;20584;-81
2020/12/11 06:07:38;;;;;;;24.70;16.23;;;1.20;96.20;;;;;;5044765;28;20224;-81
2020/12/11 06:10:05;;;;;;;27.35;17.40;;;1.20;96.40;;;;;;5047635;28;20571;-81
2020/12/11 06:12:32;;;;;;;29.38;17.67;;;1.30;96.90;;;;;;5031055;28;20207;-81
2020/12/11 06:15:05;;;;;;;28.17;18.65;;;1.30;96.70;;;;;;5047292;28;20211;-81
2020/12/11 06:17:39;;;;;;;24.48;16.88;;;1.20;96.60;;;;;;5044231;28;20260;-81
2020/12/11 06:20:08;;;;;;;29.08;16.85;;;1.30;96.60;;;;;;5050035;28;20245;-81
2020/12/11 06:22:35;;;;;;;25.15;16.48;;;1.30;96.40;;;;;;5049345;28;20530;-81
2020/12/11 06:25:30;;;;;;;27.73;17.45;;;1.40;96.80;;;;;;5045020;28;20746;-81
2020/12/11 06:27:58;;;;;;;28.02;21.52;;;1.40;96.50;;;;;;5023789;28;20293;-81
2020/12/11 06:30:30;;;;;;;24.35;15.70;;;1.30;96.70;;;;;;5049531;28;20238;-81
2020/12/11 06:32:58;;;;;;;23.95;14.20;;;1.30;96.40;;;;;;5051301;28;20211;-81
2020/12/11 06:35:25;;;;;;;21.63;15.23;;;1.20;96.10;;;;;;5049855;28;20257;-80
2020/12/11 06:37:52;;;;;;;18.85;13.30;;;1.30;96.00;;;;;;5046177;28;20240;-81
2020/12/11 06:40:47;;;;;;;22.63;14.48;;;1.30;95.90;;;;;;5042230;28;20588;-81
2020/12/11 06:43:39;;;;;;;18.88;13.43;;;1.30;95.80;;;;;;5038251;28;20654;-81
2020/12/11 06:46:19;;;;;;;20.25;13.38;;;1.40;95.60;;;;;;5044753;28;20599;-81
2020/12/11 06:49:05;;;;;;;23.15;14.52;;;1.30;95.30;;;;;;5049725;28;20200;-81
2020/12/11 06:51:32;;;;;;;20.13;14.20;;;1.30;95.20;;;;;;5051010;28;20231;-81
2020/12/11 06:53:58;;;;;;;30.77;15.65;;;1.30;95.20;;;;;;5043189;28;20197;-80
2020/12/11 06:56:42;;;;;;;24.27;15.70;;;1.30;95.50;;;;;;5051214;28;20281;-81
2020/12/11 06:59:23;;;;;;;28.25;15.40;;;1.40;95.80;;;;;;5031924;28;20224;-81
2020/12/11 07:01:49;;;;;;;21.02;15.95;;;1.40;95.50;;;;;;5034720;28;20200;-81
2020/12/11 07:04:16;;;;;;;22.08;13.85;;;1.40;95.40;;;;;;5049029;28;20662;-81
2020/12/11 07:06:47;;;;;;;22.08;15.27;;;1.40;95.30;;;;;;5035880;28;20724;-80
2020/12/11 07:09:14;;;;;;;24.08;13.90;;;1.50;95.00;;;;;;5052595;28;20292;-81
2020/12/11 07:11:42;;;;;;;18.02;13.55;;;1.30;95.20;;;;;;5050067;28;20196;-81
2020/12/11 07:14:09;;;;;;;19.38;15.43;;;1.30;95.60;;;;;;5044280;28;20192;-81
2020/12/11 07:16:38;;;;;;;25.75;15.63;;;1.40;95.60;;;;;;5057057;28;20226;-81
2020/12/11 07:19:05;;;;;;;22.27;15.05;;;1.70;95.40;;;;;;5040832;28;20334;-81
2020/12/11 07:21:33;;;;;;;22.17;14.13;;;1.50;95.10;;;;;;5057286;28;20239;-81
2020/12/11 07:23:59;;;;;;;24.10;15.85;;;1.60;95.00;;;;;;5056663;28;20204;-81
2020/12/11 07:26:26;;;;;;;16.88;12.10;;;1.60;94.80;;;;;;5057427;28;20254;-81
2020/12/11 07:29:04;;;;;;;18.88;13.88;;;1.80;95.00;;;;;;5047367;28;20219;-81
2020/12/11 07:31:33;;;;;;;19.65;13.70;;;1.50;95.30;;;;;;5037107;28;20270;-81
2020/12/11 07:34:00;;;;;;;20.48;12.93;;;1.60;95.20;;;;;;5039807;28;20204;-80
2020/12/11 07:36:28;;;;;;;24.02;15.18;;;1.60;94.90;;;;;;5036971;28;20231;-81
2020/12/11 07:38:54;;;;;;;19.17;14.55;;;1.70;94.70;;;;;;5039147;28;20251;-81
2020/12/11 07:41:23;;;;;;;20.70;12.77;;;1.70;94.70;;;;;;5057316;28;20277;-81
2020/12/11 07:43:50;;;;;;;20.40;14.00;;;1.60;94.80;;;;;;5054916;28;20204;-81
2020/12/11 07:46:22;;;;;;;24.67;14.43;;;1.80;94.60;;;;;;5048444;28;20196;-83
2020/12/11 07:48:49;;;;;;;19.92;12.85;;;1.80;94.40;;;;;;5056067;28;20230;-82
2020/12/11 07:51:17;;;;;;;19.92;14.07;;;1.80;94.30;;;;;;5054817;28;20196;-82
2020/12/11 07:53:51;;;;;;;22.42;14.48;;;1.50;94.30;;;;;;5042013;28;20288;-82
2020/12/11 07:56:17;;;;;;;19.20;13.98;;;1.60;94.90;;;;;;5055498;28;20277;-82
2020/12/11 07:58:44;;;;;;;21.13;13.10;;;1.50;94.90;;;;;;5057204;28;20227;-82
2020/12/11 08:01:11;;;;;;;20.55;14.77;;;1.50;95.10;;;;;;5038287;28;20227;-82
2020/12/11 08:03:38;;;;;;;19.52;14.38;;;1.60;95.10;;;;;;5037085;28;20296;-82
2020/12/11 08:06:11;;;;;;;18.00;13.23;;;1.60;95.00;;;;;;5041584;28;20188;-82
2020/12/11 08:08:37;;;;;;;20.50;14.32;;;1.80;94.90;;;;;;5057207;28;20200;-82
2020/12/11 08:11:04;;;;;;;20.20;13.52;;;1.90;94.70;;;;;;5047820;28;20204;-82
2020/12/11 08:13:31;;;;;;;21.00;14.00;;;2.10;94.50;;;;;;5055029;28;20299;-82
2020/12/11 08:16:02;;;;;;;23.15;14.05;;;2.20;94.10;;;;;;5056674;28;20826;-82
2020/12/11 08:18:30;;;;;;;20.42;12.90;;;2.20;93.80;;;;;;5056481;28;20212;-82
2020/12/11 08:20:59;;;;;;;18.77;13.50;;;2.10;93.80;;;;;;5055185;28;20196;-82
2020/12/11 08:23:35;;;;;;;20.85;13.55;;;2.20;93.90;;;;;;5056316;28;20200;-82
2020/12/11 08:26:19;;;;;;;18.30;12.93;;;2.10;93.70;;;;;;5053973;28;20206;-82
2020/12/11 08:28:47;;;;;;;21.80;14.32;;;1.80;93.80;;;;;;5043802;28;20728;-82
2020/12/11 08:31:26;;;;;;;23.13;13.70;;;1.50;94.00;;;;;;5040683;28;20200;-82
2020/12/11 08:34:05;;;;;;;17.50;13.18;;;1.50;94.60;;;;;;5038570;28;20199;-82
2020/12/11 08:36:35;;;;;;;24.95;16.33;;;1.50;94.70;;;;;;5037755;28;20216;-82
2020/12/11 08:39:16;;;;;;;20.50;14.73;;;1.70;95.10;;;;;;5049734;28;20200;-83
2020/12/11 08:45:05;;;;;;;19.08;13.55;;;1.90;94.90;;;;;;5051170;28;20211;-82
2020/12/11 08:50:25;;;;;;;19.95;13.43;;;2.30;94.70;;;;;;5036075;28;20215;-82
2020/12/11 08:52:53;;;;;;;17.75;13.05;;;2.50;94.20;;;;;;5036263;28;20196;-83
2020/12/11 08:55:19;;;;;;;16.42;11.13;;;2.60;93.80;;;;;;5035236;28;20254;-83
2020/12/11 08:57:49;;;;;;;23.73;14.70;;;2.60;93.30;;;;;;5035586;28;20217;-83
2020/12/11 09:00:16;;;;;;;21.33;12.75;;;2.50;93.50;;;;;;5045341;28;20199;-83
2020/12/11 09:02:42;;;;;;;22.27;14.77;;;2.60;93.50;;;;;;5054031;28;20200;-83
2020/12/11 09:05:09;;;;;;;17.80;13.57;;;2.60;93.50;;;;;;5050293;28;20698;-83
2020/12/11 09:07:35;;;;;;;18.48;12.40;;;2.80;93.40;;;;;;5055933;28;20195;-82
2020/12/11 09:10:03;;;;;;;17.40;13.02;;;3.00;93.20;;;;;;5053878;28;20208;-83
2020/12/11 09:12:30;;;;;;;19.42;13.55;;;3.00;93.20;;;;;;5055115;28;20269;-83
2020/12/11 09:14:56;;;;;;;21.60;13.80;;;3.10;93.50;;;;;;5041409;28;20670;-83
2020/12/11 09:17:22;;;;;;;20.63;13.60;;;3.10;93.20;;;;;;5044246;28;20243;-84
2020/12/11 09:19:49;;;;;;;17.50;12.52;;;3.30;93.00;;;;;;5053575;28;20261;-83
2020/12/11 09:22:15;;;;;;;20.45;13.13;;;3.30;92.80;;;;;;5052439;28;20204;-82
2020/12/11 09:24:44;;;;;;;18.73;13.15;;;3.40;92.80;;;;;;5038960;28;20215;-84
2020/12/11 09:27:13;;;;;;;17.30;11.63;;;3.30;92.60;;;;;;5053113;28;20207;-84
2020/12/11 09:29:42;;;;;;;21.20;14.25;;;3.30;92.60;;;;;;5053683;28;20204;-83
2020/12/11 09:32:13;;;;;;;19.77;12.50;;;3.40;92.60;;;;;;5055397;28;20204;-84
2020/12/11 09:34:48;;;;;;;20.13;13.13;;;3.50;92.70;;;;;;5051009;28;20210;-83
2020/12/11 09:37:18;;;;;;;19.67;13.00;;;3.50;92.60;;;;;;5054736;28;20673;-83
2020/12/11 09:39:45;;;;;;;17.92;12.20;;;3.50;92.40;;;;;;5054509;28;20204;-83
2020/12/11 09:42:27;;;;;;;19.60;12.85;;;3.50;92.40;;;;;;5053854;28;20719;-84
2020/12/11 09:45:04;;;;;;;15.70;12.93;;;3.60;92.40;;;;;;5044665;28;20200;-84
2020/12/11 09:50:30;;;;;;;16.98;12.98;;;3.60;92.60;;;;;;5045822;28;20213;-85
2020/12/11 09:53:04;;;;;;;14.80;11.20;;;3.50;92.10;;;;;;5036260;28;20231;-84
2020/12/11 09:55:39;;;;;;;17.98;13.15;;;3.80;92.30;;;;;;5041436;28;20203;-84
2020/12/11 09:58:07;;;;;;;16.77;12.50;;;4.00;92.00;;;;;;5048997;28;20219;-85
2020/12/11 10:00:34;;;;;;;19.80;12.80;;;4.20;91.90;;;;;;5041903;28;20234;-85
2020/12/11 10:03:02;;;;;;;16.77;11.13;;;4.30;91.40;;;;;;5056135;28;20211;-85
2020/12/11 10:05:29;;;;;;;17.98;12.23;;;4.30;91.50;;;;;;5052370;28;20741;-85
2020/12/11 10:07:56;;;;;;;13.88;10.13;;;4.30;91.20;;;;;;5051714;28;20193;-85
2020/12/11 10:10:22;;;;;;;12.75;10.30;;;4.40;91.20;;;;;;5044867;28;20254;-86
2020/12/11 10:12:49;;;;;;;14.00;11.13;;;4.60;91.00;;;;;;5049278;28;20211;-86
2020/12/11 10:15:20;;;;;;;16.00;11.80;;;4.60;90.80;;;;;;5048264;28;20283;-86
2020/12/11 10:17:47;;;;;;;19.52;12.07;;;4.80;90.60;;;;;;5054765;28;20219;-86
2020/12/11 10:20:18;;;;;;;14.70;10.00;;;4.90;90.10;;;;;;5052527;28;20326;-85
2020/12/11 10:22:46;;;;;;;14.55;10.30;;;4.90;90.20;;;;;;5053291;28;20581;-87
2020/12/11 10:25:13;;;;;;;15.32;11.02;;;4.80;90.20;;;;;;5053516;28;20254;-86
2020/12/11 10:27:39;;;;;;;18.27;11.60;;;4.50;90.60;;;;;;5053728;28;20229;-87
2020/12/11 10:30:06;;;;;;;15.10;10.23;;;4.50;90.30;;;;;;5052223;28;20286;-86
2020/12/11 10:32:33;;;;;;;15.57;11.48;;;4.60;90.60;;;;;;5044210;28;20201;-86
2020/12/11 10:35:00;;;;;;;14.93;11.18;;;4.50;90.60;;;;;;5044322;28;20200;-86
2020/12/11 10:37:26;;;;;;;15.07;10.45;;;4.40;90.80;;;;;;5035067;28;20216;-87
2020/12/11 10:39:53;;;;;;;15.48;10.38;;;4.60;91.00;;;;;;5047333;28;20196;-86
2020/12/11 10:42:19;;;;;;;11.55;9.13;;;4.90;90.70;;;;;;5055512;28;20272;-86
2020/12/11 10:44:46;;;;;;;14.02;10.35;;;4.60;90.40;;;;;;5058282;28;20204;-86
2020/12/11 10:47:13;;;;;;;14.50;10.63;;;4.60;90.70;;;;;;5047732;28;20250;-87
2020/12/11 10:49:43;;;;;;;12.55;9.80;;;4.60;90.80;;;;;;5057094;28;20200;-86
2020/12/11 10:52:09;;;;;;;16.27;11.30;;;4.70;90.90;;;;;;5058599;28;20220;-87
2020/12/11 10:54:36;;;;;;;13.43;11.07;;;4.90;90.70;;;;;;5044526;28;20247;-86
2020/12/11 10:57:03;;;;;;;13.70;10.20;;;4.90;90.50;;;;;;5042587;28;20262;-86
2020/12/11 10:59:29;;;;;;;15.32;10.95;;;4.70;90.40;;;;;;5058505;28;20212;-85
2020/12/11 11:01:56;;;;;;;16.38;11.77;;;4.80;90.90;;;;;;5041444;28;20197;-86
2020/12/11 11:04:23;;;;;;;14.27;11.40;;;4.80;90.60;;;;;;5036152;28;20606;-85
2020/12/11 11:06:53;;;;;;;14.18;10.80;;;4.80;90.50;;;;;;5051279;28;20563;-84
2020/12/11 11:09:31;;;;;;;13.55;10.77;;;4.80;90.40;;;;;;5052904;28;20279;-84
2020/12/11 11:12:06;;;;;;;13.10;9.85;;;5.10;90.40;;;;;;5035403;28;20208;-84
2020/12/11 11:14:57;;;;;;;16.90;10.90;;;5.00;90.00;;;;;;5052386;28;20253;-84
2020/12/11 11:20:39;;;;;;;10.82;9.00;;;4.90;90.00;;;;;;5053833;28;20200;-84
2020/12/11 11:23:13;;;;;;;13.80;9.57;;;4.60;90.50;;;;;;5052549;28;20298;-84
2020/12/11 11:28:23;;;;;;;12.50;10.13;;;4.80;90.20;;;;;;5030655;28;20201;-84
2020/12/11 11:30:58;;;;;;;12.15;9.80;;;5.00;90.50;;;;;;5039718;28;20204;-84
2020/12/11 11:33:25;;;;;;;16.10;11.27;;;5.00;90.00;;;;;;5033800;28;20246;-84
2020/12/11 11:35:51;;;;;;;13.93;9.45;;;5.00;90.20;;;;;;5034935;28;20196;-84
2020/12/11 11:38:19;;;;;;;15.38;10.48;;;4.90;90.20;;;;;;5048969;28;20251;-84
2020/12/11 11:40:48;;;;;;;16.13;10.75;;;4.80;90.50;;;;;;5053735;28;20200;-84
2020/12/11 11:43:18;;;;;;;16.67;11.43;;;4.70;90.70;;;;;;5055660;28;20220;-84
2020/12/11 11:45:45;;;;;;;13.45;10.65;;;4.70;90.60;;;;;;5046074;28;20197;-85
2020/12/11 11:48:15;;;;;;;17.30;12.33;;;4.80;90.90;;;;;;5034869;28;21092;-84
2020/12/11 11:50:48;;;;;;;16.02;12.45;;;4.90;90.50;;;;;;5039183;28;20684;-84
2020/12/11 11:53:16;;;;;;;14.98;10.95;;;4.80;90.90;;;;;;5035446;28;20216;-84
2020/12/11 11:55:43;;;;;;;15.32;10.40;;;4.80;90.60;;;;;;5038544;28;20197;-84
2020/12/11 11:58:10;;;;;;;13.60;10.35;;;4.90;90.50;;;;;;5034666;28;20232;-83
2020/12/11 12:00:37;;;;;;;14.90;12.75;;;5.00;90.60;;;;;;5042017;28;20251;-84
2020/12/11 12:03:04;;;;;;;14.32;9.85;;;4.90;90.70;;;;;;5041620;28;20676;-84
2020/12/11 12:05:30;;;;;;;14.63;10.27;;;4.80;90.60;;;;;;5055582;28;20269;-84
2020/12/11 12:07:56;;;;;;;16.27;11.65;;;4.60;91.10;;;;;;5051306;28;20242;-83
2020/12/11 12:10:23;;;;;;;18.10;12.02;;;4.70;91.10;;;;;;5050561;28;20297;-83
2020/12/11 12:12:50;;;;;;;16.75;11.68;;;4.70;91.10;;;;;;5049586;28;20212;-84
2020/12/11 12:15:20;;;;;;;15.25;11.48;;;4.70;90.80;;;;;;5037730;28;20216;-84
2020/12/11 12:17:52;;;;;;;15.73;11.40;;;4.70;90.60;;;;;;5048941;28;20273;-84
2020/12/11 12:20:23;;;;;;;15.77;9.98;;;4.50;90.30;;;;;;5050418;28;20291;-84
2020/12/11 12:23:26;;;;;;;15.75;10.70;;;4.20;90.80;;;;;;5037769;28;20200;-83
2020/12/11 12:28:48;;;;;;;12.10;9.77;;;4.50;91.00;;;;;;5038301;28;20189;-84
2020/12/11 12:31:18;;;;;;;15.18;12.10;;;4.70;91.20;;;;;;5056918;28;20200;-83
2020/12/11 12:34:15;;;;;;;15.05;10.25;;;4.90;91.10;;;;;;5055686;28;20211;-83
2020/12/11 12:39:38;;;;;;;15.55;10.77;;;5.40;90.40;;;;;;5038561;28;20287;-84
2020/12/11 12:42:37;;;;;;;14.35;10.90;;;5.30;90.50;;;;;;5038564;28;20239;-83
2020/12/11 12:45:05;;;;;;;14.07;9.73;;;5.40;90.00;;;;;;5046650;28;20208;-83
2020/12/11 12:47:31;;;;;;;15.57;10.82;;;5.30;90.00;;;;;;5037444;28;20196;-84
2020/12/11 12:49:58;;;;;;;15.45;10.95;;;5.40;90.00;;;;;;5047902;28;20210;-82
2020/12/11 12:52:24;;;;;;;12.82;10.57;;;5.20;90.00;;;;;;5054782;28;20311;-84
2020/12/11 12:54:51;;;;;;;23.88;12.93;;;5.40;90.30;;;;;;5045902;28;20234;-84
2020/12/11 12:57:20;;;;;;;14.57;10.43;;;5.50;90.10;;;;;;5044735;28;20303;-83
2020/12/11 12:59:52;;;;;;;14.55;10.90;;;5.50;89.90;;;;;;5041506;28;20716;-84
2020/12/11 13:02:50;;;;;;;16.20;10.60;;;5.50;90.00;;;;;;5057487;28;20246;-83
2020/12/11 13:05:16;;;;;;;13.95;10.18;;;5.50;90.10;;;;;;5053226;28;20263;-83
2020/12/11 13:07:42;;;;;;;13.33;11.07;;;5.40;89.80;;;;;;5047760;28;20220;-83